createdAt,value
2018-05-06T00:02:22.617Z,101908.19
2018-05-06T00:04:50.338Z,101905.58
2018-05-06T00:07:18.088Z,101904.80
2018-05-06T00:09:45.740Z,101900.01
2018-05-06T00:12:13.369Z,101901.50
2018-05-06T00:14:41.014Z,101905.79
2018-05-06T00:17:08.629Z,101911.71
2018-05-06T00:19:36.264Z,101909.66
2018-05-06T00:22:03.941Z,101911.42
2018-05-06T00:24:31.592Z,101911.47
2018-05-06T00:26:59.225Z,101911.59
2018-05-06T00:29:26.877Z,101910.95
2018-05-06T00:31:54.483Z,101902.87
2018-05-06T00:34:22.218Z,101903.22
2018-05-06T00:36:49.809Z,101904.46
2018-05-06T00:39:17.462Z,101900.34
2018-05-06T00:41:45.057Z,101899.05
2018-05-06T00:44:12.696Z,101894.47
2018-05-06T00:46:40.329Z,101895.66
2018-05-06T00:49:07.912Z,101892.02
2018-05-06T00:51:35.584Z,101903.05
2018-05-06T00:54:14.871Z,101895.83
2018-05-06T00:56:42.521Z,101890.87
2018-05-06T00:59:10.142Z,101897.34
2018-05-06T01:01:37.790Z,101900.39
2018-05-06T01:04:05.405Z,101888.20
2018-05-06T01:06:33.081Z,101896.77
2018-05-06T01:09:00.683Z,101890.26
2018-05-06T01:11:28.445Z,101889.67
2018-05-06T01:13:56.096Z,101900.61
2018-05-06T01:16:23.837Z,101895.02
2018-05-06T01:18:51.441Z,101900.25
2018-05-06T01:21:19.078Z,101903.67
2018-05-06T01:23:46.708Z,101895.74
2018-05-06T01:26:14.305Z,101900.84
2018-05-06T01:28:42.018Z,101888.48
2018-05-06T01:31:09.623Z,101891.91
2018-05-06T01:33:37.301Z,101894.84
2018-05-06T01:36:05.065Z,101894.58
2018-05-06T01:38:32.870Z,101898.09
2018-05-06T01:41:00.501Z,101903.34
2018-05-06T01:43:28.172Z,101899.16
2018-05-06T01:45:56.005Z,101897.91
2018-05-06T01:48:23.700Z,101897.25
2018-05-06T01:50:51.400Z,101893.58
2018-05-06T01:53:19.068Z,101899.62
2018-05-06T01:55:46.661Z,101893.72
2018-05-06T01:58:14.328Z,101898.19
2018-05-06T02:00:41.955Z,101888.83
2018-05-06T02:03:09.533Z,101895.41
2018-05-06T02:05:37.181Z,101895.20
2018-05-06T02:08:04.813Z,101904.69
2018-05-06T02:10:32.480Z,101915.13
2018-05-06T02:13:00.185Z,101908.78
2018-05-06T02:15:27.831Z,101903.63
2018-05-06T02:17:55.521Z,101899.50
2018-05-06T02:20:23.221Z,101898.95
2018-05-06T02:22:50.851Z,101899.59
2018-05-06T02:25:18.498Z,101907.92
2018-05-06T02:27:46.120Z,101912.55
2018-05-06T02:30:13.836Z,101912.38
2018-05-06T02:32:41.386Z,101913.90
2018-05-06T02:35:09.076Z,101910.59
2018-05-06T02:37:36.708Z,101911.51
2018-05-06T02:40:04.350Z,101910.16
2018-05-06T02:42:32.081Z,101910.83
2018-05-06T02:44:59.740Z,101912.33
2018-05-06T02:47:27.458Z,101914.29
2018-05-06T02:49:55.076Z,101910.21
2018-05-06T02:52:22.746Z,101908.11
2018-05-06T02:54:50.353Z,101904.64
2018-05-06T02:57:17.980Z,101900.25
2018-05-06T02:59:45.601Z,101899.16
2018-05-06T03:02:13.238Z,101904.47
2018-05-06T03:04:40.853Z,101900.95
2018-05-06T03:07:08.488Z,101898.10
2018-05-06T03:09:36.088Z,101897.25
2018-05-06T03:12:03.697Z,101895.49
2018-05-06T03:14:31.376Z,101901.89
2018-05-06T03:16:59.075Z,101904.79
2018-05-06T03:19:26.744Z,101909.45
2018-05-06T03:21:54.423Z,101908.50
2018-05-06T03:24:22.083Z,101908.59
2018-05-06T03:26:49.674Z,101902.84
2018-05-06T03:29:17.345Z,101901.82
2018-05-06T03:31:44.971Z,101905.50
2018-05-06T03:34:12.645Z,101906.60
2018-05-06T03:36:40.369Z,101901.33
2018-05-06T03:39:08.009Z,101905.02
2018-05-06T03:41:35.615Z,101914.00
2018-05-06T03:44:03.257Z,101919.15
2018-05-06T03:46:30.849Z,101912.20
2018-05-06T03:48:58.634Z,101907.03
2018-05-06T03:51:26.310Z,101909.83
2018-05-06T03:53:53.916Z,101907.06
2018-05-06T03:59:46.460Z,101913.20
2018-05-06T04:05:22.799Z,101907.52
2018-05-06T04:07:50.426Z,101911.80
2018-05-06T04:10:18.083Z,101916.59
2018-05-06T04:12:45.728Z,101917.20
2018-05-06T04:15:13.362Z,101918.22
2018-05-06T04:17:41.013Z,101926.72
2018-05-06T04:20:08.665Z,101927.46
2018-05-06T04:22:36.301Z,101932.13
2018-05-06T04:25:03.887Z,101931.66
2018-05-06T04:27:31.543Z,101931.53
2018-05-06T04:29:59.180Z,101934.25
2018-05-06T04:32:26.875Z,101936.58
2018-05-06T04:34:54.695Z,101938.62
2018-05-06T04:37:22.357Z,101935.06
2018-05-06T04:39:49.954Z,101937.94
2018-05-06T04:42:17.642Z,101935.45
2018-05-06T04:44:45.276Z,101934.73
2018-05-06T04:47:12.925Z,101936.75
2018-05-06T04:49:40.585Z,101943.28
2018-05-06T04:52:08.235Z,101943.49
2018-05-06T04:54:35.829Z,101940.67
2018-05-06T04:57:03.487Z,101944.53
2018-05-06T04:59:31.125Z,101936.16
2018-05-06T05:01:58.828Z,101942.88
2018-05-06T05:04:26.494Z,101943.77
2018-05-06T05:06:54.152Z,101943.88
2018-05-06T05:09:21.851Z,101946.69
2018-05-06T05:11:49.460Z,101945.02
2018-05-06T05:14:17.325Z,101944.55
2018-05-06T05:16:44.978Z,101941.13
2018-05-06T05:19:12.627Z,101947.02
2018-05-06T05:21:40.340Z,101942.83
2018-05-06T05:24:08.085Z,101938.41
2018-05-06T05:26:35.731Z,101946.58
2018-05-06T05:29:03.538Z,101944.70
2018-05-06T05:31:31.149Z,101934.13
2018-05-06T05:33:58.774Z,101934.33
2018-05-06T05:36:26.392Z,101933.72
2018-05-06T05:38:54.022Z,101929.65
2018-05-06T05:41:21.674Z,101925.88
2018-05-06T05:43:49.353Z,101939.77
2018-05-06T05:46:17.130Z,101931.77
2018-05-06T05:48:44.712Z,101934.59
2018-05-06T05:51:12.423Z,101935.91
2018-05-06T05:53:40.720Z,101935.85
2018-05-06T05:56:08.505Z,101929.38
2018-05-06T05:58:36.124Z,101932.19
2018-05-06T06:01:03.749Z,101935.03
2018-05-06T06:03:31.378Z,101944.88
2018-05-06T06:05:59.034Z,101938.13
2018-05-06T06:08:26.637Z,101947.86
2018-05-06T06:10:54.313Z,101942.77
2018-05-06T06:13:21.992Z,101935.74
2018-05-06T06:15:49.636Z,101933.69
2018-05-06T06:18:17.259Z,101929.58
2018-05-06T06:20:44.994Z,101941.22
2018-05-06T06:23:12.614Z,101937.92
2018-05-06T06:25:40.261Z,101944.16
2018-05-06T06:28:07.999Z,101947.62
2018-05-06T06:30:35.637Z,101936.84
2018-05-06T06:33:03.412Z,101940.29
2018-05-06T06:35:31.070Z,101945.87
2018-05-06T06:37:58.754Z,101947.77
2018-05-06T06:40:26.409Z,101945.20
2018-05-06T06:42:54.097Z,101941.64
2018-05-06T06:45:21.806Z,101948.91
2018-05-06T06:47:49.465Z,101947.78
2018-05-06T06:50:17.084Z,101941.64
2018-05-06T06:52:44.721Z,101941.34
2018-05-06T06:55:12.369Z,101943.17
2018-05-06T06:57:40.154Z,101941.31
2018-05-06T07:00:07.764Z,101944.97
2018-05-06T07:02:35.408Z,101941.55
2018-05-06T07:05:03.032Z,101946.28
2018-05-06T07:07:30.699Z,101953.13
2018-05-06T07:09:58.365Z,101952.51
2018-05-06T07:12:25.988Z,101958.95
2018-05-06T07:14:53.632Z,101956.09
2018-05-06T07:17:21.213Z,101956.83
2018-05-06T07:19:48.825Z,101953.66
2018-05-06T07:22:16.549Z,101957.95
2018-05-06T07:24:44.228Z,101949.53
2018-05-06T07:27:11.857Z,101951.07
2018-05-06T07:29:39.499Z,101944.13
2018-05-06T07:32:07.153Z,101939.45
2018-05-06T07:34:34.809Z,101943.39
2018-05-06T07:37:02.409Z,101936.38
2018-05-06T07:39:30.104Z,101942.25
2018-05-06T07:41:57.716Z,101941.11
2018-05-06T07:44:25.439Z,101944.56
2018-05-06T07:46:53.044Z,101940.86
2018-05-06T07:49:21.482Z,101938.64
2018-05-06T07:51:49.073Z,101939.81
2018-05-06T07:54:16.843Z,101937.41
2018-05-06T07:56:44.446Z,101937.02
2018-05-06T07:59:12.049Z,101933.30
2018-05-06T08:01:39.674Z,101933.07
2018-05-06T08:04:07.280Z,101938.47
2018-05-06T08:06:34.908Z,101933.81
2018-05-06T08:09:02.578Z,101929.16
2018-05-06T08:11:30.213Z,101934.57
2018-05-06T08:13:57.884Z,101939.05
2018-05-06T08:16:25.647Z,101930.97
2018-05-06T08:18:53.188Z,101933.77
2018-05-06T08:21:20.988Z,101922.11
2018-05-06T08:23:48.611Z,101928.94
2018-05-06T08:26:16.237Z,101933.51
2018-05-06T08:28:43.977Z,101926.19
2018-05-06T08:31:11.663Z,101930.97
2018-05-06T08:33:39.256Z,101926.00
2018-05-06T08:36:06.903Z,101930.25
2018-05-06T08:38:34.525Z,101932.25
2018-05-06T08:41:02.545Z,101935.88
2018-05-06T08:43:30.188Z,101940.03
2018-05-06T08:45:57.896Z,101941.20
2018-05-06T08:48:25.544Z,101938.13
2018-05-06T08:50:53.145Z,101938.23
2018-05-06T08:53:20.798Z,101936.27
2018-05-06T08:55:48.396Z,101936.08
2018-05-06T08:58:16.040Z,101935.58
2018-05-06T09:00:43.642Z,101927.52
2018-05-06T09:03:11.321Z,101927.14
2018-05-06T09:05:38.932Z,101929.55
2018-05-06T09:08:06.582Z,101928.77
2018-05-06T09:10:34.184Z,101930.25
2018-05-06T09:13:01.821Z,101929.84
2018-05-06T09:15:29.444Z,101924.16
2018-05-06T09:17:57.076Z,101930.52
2018-05-06T09:20:24.679Z,101934.19
2018-05-06T09:22:52.294Z,101930.69
2018-05-06T09:25:20.009Z,101932.45
2018-05-06T09:27:47.512Z,101924.56
2018-05-06T09:30:15.171Z,101927.34
2018-05-06T09:32:42.834Z,101928.87
2018-05-06T09:35:10.521Z,101933.05
2018-05-06T09:37:38.176Z,101920.83
2018-05-06T09:40:05.774Z,101916.86
2018-05-06T09:42:33.384Z,101915.13
2018-05-06T09:45:01.030Z,101917.01
2018-05-06T09:47:28.647Z,101906.84
2018-05-06T09:49:56.339Z,101899.34
2018-05-06T09:52:24.137Z,101898.53
2018-05-06T09:54:51.761Z,101896.38
2018-05-06T09:57:19.382Z,101888.95
2018-05-06T09:59:47.008Z,101882.75
2018-05-06T10:02:14.627Z,101877.88
2018-05-06T10:04:42.326Z,101878.84
2018-05-06T10:07:09.919Z,101873.20
2018-05-06T10:09:37.567Z,101874.50
2018-05-06T10:12:05.240Z,101877.66
2018-05-06T10:14:33.006Z,101879.45
2018-05-06T10:17:00.635Z,101881.69
2018-05-06T10:19:28.245Z,101875.48
2018-05-06T10:21:55.872Z,101875.52
2018-05-06T10:24:23.503Z,101878.59
2018-05-06T10:26:51.139Z,101875.05
2018-05-06T10:29:18.739Z,101867.09
2018-05-06T10:31:46.401Z,101865.75
2018-05-06T10:34:14.025Z,101862.63
2018-05-06T10:36:41.694Z,101856.89
2018-05-06T10:39:09.294Z,101849.67
2018-05-06T10:41:36.995Z,101843.02
2018-05-06T10:44:04.707Z,101835.95
2018-05-06T10:46:32.352Z,101839.38
2018-05-06T10:48:59.988Z,101829.62
2018-05-06T10:51:27.631Z,101825.87
2018-05-06T10:53:55.239Z,101820.80
2018-05-06T10:56:22.877Z,101816.33
2018-05-06T10:58:50.474Z,101812.52
2018-05-06T11:01:18.106Z,101809.85
2018-05-06T11:03:45.696Z,101808.21
2018-05-06T11:06:13.347Z,101804.14
2018-05-06T11:08:41.149Z,101799.20
2018-05-06T11:11:08.796Z,101791.62
2018-05-06T11:13:36.436Z,101796.28
2018-05-06T11:16:04.054Z,101782.63
2018-05-06T11:18:31.685Z,101786.81
2018-05-06T11:20:59.310Z,101778.58
2018-05-06T11:23:26.957Z,101779.26
2018-05-06T11:25:54.639Z,101777.05
2018-05-06T11:28:22.260Z,101782.67
2018-05-06T11:30:49.856Z,101779.06
2018-05-06T11:33:17.582Z,101778.93
2018-05-06T11:35:45.162Z,101768.70
2018-05-06T11:38:12.871Z,101771.21
2018-05-06T11:40:40.529Z,101767.41
2018-05-06T11:43:08.186Z,101773.80
2018-05-06T11:45:35.798Z,101766.27
2018-05-06T11:48:03.503Z,101766.29
2018-05-06T11:50:31.174Z,101764.03
2018-05-06T11:52:58.768Z,101761.81
2018-05-06T11:55:26.406Z,101757.41
2018-05-06T11:57:54.061Z,101764.95
2018-05-06T12:00:21.713Z,101759.11
2018-05-06T12:02:49.321Z,101756.30
2018-05-06T12:05:16.957Z,101757.87
2018-05-06T12:07:44.592Z,101751.87
2018-05-06T12:10:12.318Z,101749.71
2018-05-06T12:12:39.928Z,101748.44
2018-05-06T12:15:07.554Z,101739.03
2018-05-06T12:17:35.152Z,101736.23
2018-05-06T12:20:02.810Z,101733.83
2018-05-06T12:22:30.482Z,101733.30
2018-05-06T12:24:58.215Z,101729.73
2018-05-06T12:27:25.816Z,101718.23
2018-05-06T12:29:53.457Z,101713.20
2018-05-06T12:32:21.060Z,101710.58
2018-05-06T12:34:48.769Z,101712.09
2018-05-06T12:37:16.373Z,101708.67
2018-05-06T12:39:43.972Z,101696.03
2018-05-06T12:42:11.596Z,101693.06
2018-05-06T12:44:39.202Z,101701.83
2018-05-06T12:47:06.857Z,101694.39
2018-05-06T12:49:34.468Z,101686.56
2018-05-06T12:52:02.112Z,101679.03
2018-05-06T12:54:29.701Z,101679.41
2018-05-06T12:56:57.358Z,101678.84
2018-05-06T12:59:24.974Z,101672.59
2018-05-06T13:01:52.885Z,101669.50
2018-05-06T13:04:20.520Z,101669.30
2018-05-06T13:06:48.160Z,101656.58
2018-05-06T13:09:15.789Z,101657.75
2018-05-06T13:11:43.432Z,101650.73
2018-05-06T13:14:11.096Z,101652.02
2018-05-06T13:16:38.756Z,101648.23
2018-05-06T13:19:06.613Z,101645.94
2018-05-06T13:21:34.225Z,101645.78
2018-05-06T13:24:01.898Z,101639.76
2018-05-06T13:26:29.519Z,101642.09
2018-05-06T13:28:57.298Z,101638.91
2018-05-06T13:31:25.005Z,101637.45
2018-05-06T13:33:52.747Z,101634.31
2018-05-06T13:36:20.355Z,101629.14
2018-05-06T13:38:47.980Z,101626.02
2018-05-06T13:41:15.678Z,101619.91
2018-05-06T13:43:43.341Z,101616.53
2018-05-06T13:46:10.966Z,101619.36
2018-05-06T13:48:38.716Z,101614.36
2018-05-06T13:51:06.313Z,101614.24
2018-05-06T13:53:33.952Z,101608.88
2018-05-06T13:56:01.574Z,101608.53
2018-05-06T13:58:29.208Z,101600.81
2018-05-06T14:00:56.895Z,101604.75
2018-05-06T14:03:24.526Z,101598.65
2018-05-06T14:05:52.145Z,101598.27
2018-05-06T14:08:19.777Z,101595.66
2018-05-06T14:10:47.374Z,101591.79
2018-05-06T14:13:15.001Z,101585.31
2018-05-06T14:15:42.595Z,101589.69
2018-05-06T14:18:10.250Z,101580.20
2018-05-06T14:20:37.841Z,101585.14
2018-05-06T14:23:05.460Z,101580.25
2018-05-06T14:25:33.121Z,101574.53
2018-05-06T14:28:00.805Z,101578.09
2018-05-06T14:30:28.437Z,101575.34
2018-05-06T14:32:56.038Z,101569.71
2018-05-06T14:35:23.653Z,101567.91
2018-05-06T14:37:51.277Z,101571.45
2018-05-06T14:40:19.160Z,101572.32
2018-05-06T14:42:46.761Z,101566.73
2018-05-06T14:45:14.619Z,101568.18
2018-05-06T14:47:53.951Z,101562.98
2018-05-06T14:50:21.624Z,101556.41
2018-05-06T14:52:49.238Z,101557.77
2018-05-06T14:55:16.872Z,101558.95
2018-05-06T14:57:44.615Z,101554.17
2018-05-06T15:00:12.261Z,101552.72
2018-05-06T15:02:39.967Z,101560.83
2018-05-06T15:05:07.610Z,101550.56
2018-05-06T15:07:35.350Z,101552.58
2018-05-06T15:10:03.004Z,101555.41
2018-05-06T15:12:30.610Z,101546.22
2018-05-06T15:14:58.282Z,101540.98
2018-05-06T15:17:25.905Z,101539.84
2018-05-06T15:19:53.515Z,101538.98
2018-05-06T15:22:21.214Z,101539.80
2018-05-06T15:24:48.802Z,101540.24
2018-05-06T15:27:16.441Z,101529.47
2018-05-06T15:29:44.102Z,101522.89
2018-05-06T15:32:11.753Z,101515.86
2018-05-06T15:34:39.369Z,101517.23
2018-05-06T15:37:07.014Z,101523.97
2018-05-06T15:39:34.628Z,101517.98
2018-05-06T15:42:02.284Z,101523.58
2018-05-06T15:44:29.889Z,101516.86
2018-05-06T15:46:57.586Z,101515.13
2018-05-06T15:49:25.188Z,101511.66
2018-05-06T15:51:52.833Z,101517.80
2018-05-06T15:54:20.431Z,101512.54
2018-05-06T15:56:48.048Z,101510.38
2018-05-06T15:59:15.673Z,101510.83
2018-05-06T16:01:43.328Z,101513.16
2018-05-06T16:04:17.538Z,101512.88
2018-05-06T16:06:45.324Z,101502.86
2018-05-06T16:09:13.029Z,101500.73
2018-05-06T16:11:40.663Z,101503.94
2018-05-06T16:14:08.298Z,101505.23
2018-05-06T16:16:35.933Z,101498.50
2018-05-06T16:19:03.604Z,101498.85
2018-05-06T16:21:31.249Z,101491.90
2018-05-06T16:23:58.901Z,101493.22
2018-05-06T16:26:26.508Z,101487.61
2018-05-06T16:28:54.183Z,101486.56
2018-05-06T16:31:21.764Z,101489.06
2018-05-06T16:33:49.409Z,101485.53
2018-05-06T16:36:17.048Z,101485.17
2018-05-06T16:38:44.672Z,101484.73
2018-05-06T16:41:12.389Z,101489.76
2018-05-06T16:43:40.049Z,101489.98
2018-05-06T16:46:07.642Z,101488.87
2018-05-06T16:48:35.336Z,101483.20
2018-05-06T16:51:02.948Z,101488.05
2018-05-06T16:53:30.542Z,101482.30
2018-05-06T16:55:58.181Z,101488.86
2018-05-06T16:58:25.816Z,101483.42
2018-05-06T17:00:53.492Z,101489.20
2018-05-06T17:03:21.092Z,101489.12
2018-05-06T17:05:48.720Z,101484.73
2018-05-06T17:08:16.325Z,101480.78
2018-05-06T17:10:43.997Z,101484.57
2018-05-06T17:13:11.603Z,101482.62
2018-05-06T17:15:39.244Z,101483.98
2018-05-06T17:18:06.858Z,101483.33
2018-05-06T17:20:34.650Z,101480.80
2018-05-06T17:23:02.343Z,101480.55
2018-05-06T17:25:30.054Z,101482.86
2018-05-06T17:27:57.708Z,101479.50
2018-05-06T17:30:25.362Z,101479.75
2018-05-06T17:32:53.101Z,101480.61
2018-05-06T17:35:20.844Z,101481.10
2018-05-06T17:37:48.529Z,101486.28
2018-05-06T17:40:16.160Z,101489.28
2018-05-06T17:42:43.886Z,101495.28
2018-05-06T17:45:11.421Z,101496.33
2018-05-06T17:47:39.077Z,101494.29
2018-05-06T17:50:06.822Z,101492.30
2018-05-06T17:52:34.441Z,101493.58
2018-05-06T17:55:02.068Z,101487.19
2018-05-06T17:57:29.734Z,101491.44
2018-05-06T17:59:57.353Z,101490.89
2018-05-06T18:02:25.035Z,101498.16
2018-05-06T18:04:52.692Z,101501.19
2018-05-06T18:07:20.306Z,101497.03
2018-05-06T18:09:47.952Z,101497.87
2018-05-06T18:12:15.568Z,101498.19
2018-05-06T18:14:43.328Z,101504.84
2018-05-06T18:17:10.917Z,101505.00
2018-05-06T18:19:38.576Z,101500.34
2018-05-06T18:22:06.196Z,101506.03
2018-05-06T18:24:33.928Z,101502.78
2018-05-06T18:27:01.496Z,101504.59
2018-05-06T18:29:29.142Z,101511.17
2018-05-06T18:31:56.767Z,101513.52
2018-05-06T18:34:24.422Z,101509.54
2018-05-06T18:36:52.081Z,101511.59
2018-05-06T18:39:19.768Z,101516.77
2018-05-06T18:41:47.364Z,101518.23
2018-05-06T18:44:15.010Z,101519.72
2018-05-06T18:46:42.632Z,101516.30
2018-05-06T18:49:10.280Z,101521.69
2018-05-06T18:51:37.889Z,101520.71
2018-05-06T18:54:05.506Z,101529.11
2018-05-06T18:56:33.180Z,101528.33
2018-05-06T18:59:00.796Z,101532.83
2018-05-06T19:01:28.423Z,101529.41
2018-05-06T19:03:56.072Z,101528.16
2018-05-06T19:06:23.726Z,101534.89
2018-05-06T19:08:51.307Z,101534.13
2018-05-06T19:11:18.974Z,101536.91
2018-05-06T19:13:46.648Z,101542.73
2018-05-06T19:16:14.317Z,101547.62
2018-05-06T19:18:41.911Z,101548.73
2018-05-06T19:21:09.565Z,101549.44
2018-05-06T19:23:37.234Z,101557.47
2018-05-06T19:26:04.888Z,101557.03
2018-05-06T19:28:32.513Z,101557.53
2018-05-06T19:31:00.180Z,101568.30
2018-05-06T19:33:27.816Z,101568.80
2018-05-06T19:35:55.427Z,101568.45
2018-05-06T19:38:23.076Z,101576.44
2018-05-06T19:40:50.688Z,101577.38
2018-05-06T19:43:18.329Z,101575.15
2018-05-06T19:45:45.964Z,101577.41
2018-05-06T19:48:13.603Z,101586.33
2018-05-06T19:50:41.222Z,101582.81
2018-05-06T19:53:08.901Z,101589.02
2018-05-06T19:55:36.494Z,101583.28
2018-05-06T19:58:04.122Z,101588.10
2018-05-06T20:00:31.751Z,101590.74
2018-05-06T20:02:59.397Z,101584.56
2018-05-06T20:05:27.004Z,101583.63
2018-05-06T20:07:54.676Z,101588.61
2018-05-06T20:10:22.319Z,101590.83
2018-05-06T20:12:50.028Z,101588.22
2018-05-06T20:15:17.683Z,101597.50
2018-05-06T20:17:45.264Z,101598.86
2018-05-06T20:20:12.901Z,101605.45
2018-05-06T20:22:40.511Z,101609.00
2018-05-06T20:25:08.145Z,101607.61
2018-05-06T20:27:35.760Z,101608.92
2018-05-06T20:30:03.379Z,101612.45
2018-05-06T20:32:31.053Z,101613.28
2018-05-06T20:34:58.780Z,101617.70
2018-05-06T20:37:26.493Z,101616.80
2018-05-06T20:39:54.148Z,101615.05
2018-05-06T20:42:21.893Z,101613.75
2018-05-06T20:44:49.557Z,101617.23
2018-05-06T20:47:17.184Z,101616.79
2018-05-06T20:49:45.062Z,101621.18
2018-05-06T20:52:12.659Z,101622.50
2018-05-06T20:54:40.301Z,101625.58
2018-05-06T20:57:08.053Z,101625.53
2018-05-06T20:59:35.661Z,101633.37
2018-05-06T21:02:03.374Z,101632.59
2018-05-06T21:06:57.947Z,101625.50
2018-05-06T21:09:25.644Z,101637.88
2018-05-06T21:11:53.406Z,101636.52
2018-05-06T21:14:21.013Z,101629.94
2018-05-06T21:16:48.774Z,101635.30
2018-05-06T21:19:16.404Z,101635.73
2018-05-06T21:21:44.126Z,101639.70
2018-05-06T21:24:11.723Z,101630.89
2018-05-06T21:26:39.385Z,101632.19
2018-05-06T21:29:07.037Z,101631.59
2018-05-06T21:31:34.807Z,101630.85
2018-05-06T21:34:02.418Z,101636.45
2018-05-06T21:36:30.106Z,101631.64
2018-05-06T21:38:57.697Z,101636.78
2018-05-06T21:41:25.337Z,101639.05
2018-05-06T21:43:52.981Z,101638.11
2018-05-06T21:46:20.654Z,101635.20
2018-05-06T21:48:48.314Z,101639.58
2018-05-06T21:51:15.940Z,101637.33
2018-05-06T21:53:43.560Z,101640.75
2018-05-06T21:56:11.158Z,101642.91
2018-05-06T21:58:38.882Z,101650.30
2018-05-06T22:01:06.521Z,101649.42
2018-05-06T22:03:34.174Z,101652.02
2018-05-06T22:06:01.817Z,101652.92
2018-05-06T22:08:29.408Z,101651.02
2018-05-06T22:10:57.067Z,101650.91
2018-05-06T22:13:24.776Z,101657.86
2018-05-06T22:15:52.438Z,101652.12
2018-05-06T22:18:20.049Z,101650.33
2018-05-06T22:20:47.741Z,101656.67
2018-05-06T22:23:15.354Z,101656.26
2018-05-06T22:25:43.102Z,101658.31
2018-05-06T22:28:10.697Z,101652.56
2018-05-06T22:30:38.358Z,101657.81
2018-05-06T22:33:05.948Z,101655.39
2018-05-06T22:35:33.585Z,101653.89
2018-05-06T22:38:01.318Z,101654.47
2018-05-06T22:40:28.961Z,101656.14
2018-05-06T22:42:56.560Z,101657.90
2018-05-06T22:45:24.201Z,101658.70
2018-05-06T22:47:51.821Z,101657.67
2018-05-06T22:50:19.454Z,101654.07
2018-05-06T22:52:47.085Z,101659.47
2018-05-06T22:55:14.865Z,101653.92
2018-05-06T22:57:42.496Z,101654.73
2018-05-06T23:00:10.102Z,101652.16
2018-05-06T23:02:37.729Z,101658.10
2018-05-06T23:05:05.328Z,101648.33
2018-05-06T23:07:32.986Z,101650.28
2018-05-06T23:10:00.598Z,101650.67
2018-05-06T23:12:28.242Z,101646.64
2018-05-06T23:14:55.844Z,101649.14
2018-05-06T23:17:23.493Z,101651.20
2018-05-06T23:19:51.105Z,101648.77
2018-05-06T23:22:18.850Z,101649.59
2018-05-06T23:24:46.352Z,101647.66
2018-05-06T23:27:14.004Z,101644.19
2018-05-06T23:29:41.613Z,101652.22
2018-05-06T23:32:09.213Z,101647.95
2018-05-06T23:34:36.882Z,101642.64
2018-05-06T23:37:04.520Z,101639.25
2018-05-06T23:39:32.149Z,101633.22
2018-05-06T23:41:59.749Z,101642.78
2018-05-06T23:44:27.444Z,101634.81
2018-05-06T23:46:55.038Z,101640.45
2018-05-06T23:49:22.677Z,101640.63
2018-05-06T23:51:50.291Z,101639.39
2018-05-06T23:54:17.926Z,101633.59
2018-05-06T23:56:45.536Z,101639.81
2018-05-06T23:59:13.173Z,101635.66
